createdAt,value
2022-11-24T00:00:45.297Z,64.83
2022-11-24T00:03:56.039Z,64.92
2022-11-24T00:06:59.790Z,64.72
2022-11-24T00:10:03.987Z,64.69
2022-11-24T00:13:07.671Z,64.70
2022-11-24T00:16:14.860Z,64.77
2022-11-24T00:19:19.895Z,64.72
2022-11-24T00:22:23.861Z,65.03
2022-11-24T00:25:27.501Z,64.79
2022-11-24T00:28:31.974Z,64.51
2022-11-24T00:31:40.685Z,64.18
2022-11-24T00:34:44.421Z,64.16
2022-11-24T00:37:47.529Z,64.39
2022-11-24T00:40:52.443Z,65.70
2022-11-24T00:43:56.473Z,66.51
2022-11-24T00:46:59.861Z,66.75
2022-11-24T00:50:05.011Z,67.22
2022-11-24T00:53:08.778Z,66.59
2022-11-24T00:56:12.889Z,67.07
2022-11-24T00:59:16.166Z,67.61
2022-11-24T01:02:20.139Z,67.83
2022-11-24T01:05:23.889Z,67.72
2022-11-24T01:08:27.597Z,67.95
2022-11-24T01:11:54.582Z,68.22
2022-11-24T01:14:59.603Z,68.04
2022-11-24T01:18:02.978Z,67.67
2022-11-24T01:21:10.102Z,67.43
2022-11-24T01:24:15.181Z,66.27
2022-11-24T01:27:18.872Z,66.14
2022-11-24T01:30:24.124Z,65.75
2022-11-24T01:33:28.273Z,65.89
2022-11-24T01:36:31.975Z,65.13
2022-11-24T01:39:35.798Z,64.82
2022-11-24T01:42:52.597Z,64.41
2022-11-24T01:45:56.761Z,64.47
2022-11-24T01:49:09.997Z,64.23
2022-11-24T01:52:20.636Z,62.96
2022-11-24T01:55:32.291Z,63.00
2022-11-24T01:58:36.842Z,64.16
2022-11-24T02:01:40.727Z,63.07
2022-11-24T02:04:45.937Z,63.25
2022-11-24T02:07:51.426Z,63.52
2022-11-24T02:10:56.036Z,63.16
2022-11-24T02:14:00.102Z,62.60
2022-11-24T02:17:03.937Z,62.13
2022-11-24T02:20:10.666Z,61.49
2022-11-24T02:23:52.744Z,61.44
2022-11-24T02:26:56.649Z,61.63
2022-11-24T02:30:00.536Z,61.74
2022-11-24T02:33:04.198Z,62.23
2022-11-24T02:36:08.265Z,62.37
2022-11-24T02:39:16.159Z,61.99
2022-11-24T02:42:19.195Z,61.55
2022-11-24T02:45:24.398Z,62.34
2022-11-24T02:48:27.564Z,62.79
2022-11-24T02:51:30.953Z,61.33
2022-11-24T02:54:35.190Z,61.01
2022-11-24T02:57:38.849Z,62.08
2022-11-24T03:00:42.168Z,61.21
2022-11-24T03:03:46.414Z,59.94
2022-11-24T03:06:50.193Z,59.31
2022-11-24T03:09:54.190Z,59.37
2022-11-24T03:12:57.405Z,59.16
2022-11-24T03:16:03.591Z,59.60
2022-11-24T03:19:07.436Z,60.49
2022-11-24T03:22:10.421Z,60.16
2022-11-24T03:25:14.067Z,59.79
2022-11-24T03:28:17.361Z,58.45
2022-11-24T03:31:20.506Z,59.91
2022-11-24T03:34:23.804Z,61.90
2022-11-24T03:37:26.927Z,57.74
2022-11-24T03:40:30.233Z,58.90
2022-11-24T03:43:36.790Z,59.90
2022-11-24T03:46:42.155Z,57.67
2022-11-24T03:49:45.188Z,58.25
2022-11-24T03:52:52.216Z,59.13
2022-11-24T03:55:55.989Z,59.44
2022-11-24T03:58:58.934Z,61.35
2022-11-24T04:02:01.972Z,58.71
2022-11-24T04:05:06.446Z,57.37
2022-11-24T04:08:09.911Z,56.93
2022-11-24T04:11:32.765Z,57.80
2022-11-24T04:14:35.877Z,57.85
2022-11-24T04:17:39.608Z,57.07
2022-11-24T04:20:43.177Z,56.26
2022-11-24T04:23:47.024Z,58.39
2022-11-24T04:26:50.256Z,57.70
2022-11-24T04:29:54.283Z,54.49
2022-11-24T04:32:57.960Z,55.17
2022-11-24T04:36:01.535Z,54.78
2022-11-24T04:39:19.826Z,55.09
2022-11-24T04:42:29.297Z,56.46
2022-11-24T04:45:32.489Z,57.68
2022-11-24T04:48:36.525Z,57.46
2022-11-24T04:51:40.683Z,55.58
2022-11-24T04:54:45.053Z,54.02
2022-11-24T04:57:48.295Z,53.97
2022-11-24T05:00:53.482Z,52.70
2022-11-24T05:03:57.377Z,53.40
2022-11-24T05:07:01.195Z,53.38
2022-11-24T05:10:23.833Z,53.91
2022-11-24T05:13:27.837Z,55.45
2022-11-24T05:16:30.796Z,52.68
2022-11-24T05:19:34.240Z,54.52
2022-11-24T05:22:37.975Z,53.35
2022-11-24T05:25:47.321Z,52.66
2022-11-24T05:28:51.284Z,53.23
2022-11-24T05:31:54.912Z,53.14
2022-11-24T05:34:58.787Z,52.53
2022-11-24T05:38:02.890Z,52.40
2022-11-24T05:41:07.054Z,52.18
2022-11-24T05:44:10.917Z,52.77
2022-11-24T05:47:14.514Z,53.12
2022-11-24T05:50:20.119Z,52.37
2022-11-24T05:53:24.714Z,52.63
2022-11-24T05:56:28.406Z,52.77
2022-11-24T05:59:31.763Z,52.05
2022-11-24T06:02:35.912Z,52.80
2022-11-24T06:05:39.389Z,52.00
2022-11-24T06:08:45.958Z,51.81
2022-11-24T06:11:50.334Z,52.51
2022-11-24T06:14:53.687Z,51.76
2022-11-24T06:17:57.251Z,51.82
2022-11-24T06:21:10.928Z,51.29
2022-11-24T06:24:15.264Z,51.96
2022-11-24T06:27:19.737Z,52.11
2022-11-24T06:30:23.316Z,51.79
2022-11-24T06:33:27.295Z,51.53
2022-11-24T06:36:31.048Z,51.83
2022-11-24T06:39:34.913Z,52.13
2022-11-24T06:42:38.678Z,52.33
2022-11-24T06:45:42.838Z,52.53
2022-11-24T06:48:46.237Z,52.36
2022-11-24T06:51:50.135Z,52.43
2022-11-24T06:54:54.196Z,52.18
2022-11-24T06:57:58.188Z,51.99
2022-11-24T07:01:02.020Z,52.98
2022-11-24T07:04:05.841Z,53.17
2022-11-24T07:07:09.350Z,53.37
2022-11-24T07:10:13.284Z,53.05
2022-11-24T07:13:16.528Z,53.08
2022-11-24T07:16:21.613Z,54.50
2022-11-24T07:19:25.503Z,55.18
2022-11-24T07:22:29.503Z,55.79
2022-11-24T07:25:32.718Z,55.52
2022-11-24T07:28:37.776Z,56.31
2022-11-24T07:31:41.507Z,56.62
2022-11-24T07:34:45.147Z,56.64
2022-11-24T07:37:48.651Z,56.84
2022-11-24T07:40:53.002Z,56.95
2022-11-24T07:43:56.663Z,57.02
2022-11-24T07:47:00.646Z,57.35
2022-11-24T07:50:04.338Z,58.59
2022-11-24T07:53:07.850Z,59.53
2022-11-24T07:56:11.838Z,60.14
2022-11-24T07:59:16.158Z,60.62
2022-11-24T08:02:20.154Z,61.05
2022-11-24T08:05:24.180Z,60.72
2022-11-24T08:08:27.958Z,61.81
2022-11-24T08:11:35.120Z,61.50
2022-11-24T08:14:37.988Z,62.03
2022-11-24T08:17:41.897Z,62.48
2022-11-24T08:20:45.444Z,62.96
2022-11-24T08:23:48.346Z,63.25
2022-11-24T08:26:52.095Z,63.62
2022-11-24T08:29:55.292Z,63.72
2022-11-24T08:33:02.782Z,64.05
2022-11-24T08:36:09.028Z,64.23
2022-11-24T08:39:12.540Z,64.56
2022-11-24T08:42:16.905Z,65.45
2022-11-24T08:45:22.028Z,65.72
2022-11-24T08:48:27.134Z,66.03
2022-11-24T08:51:30.963Z,66.32
2022-11-24T08:54:35.314Z,66.42
2022-11-24T08:57:39.143Z,66.69
2022-11-24T09:00:43.198Z,66.78
2022-11-24T09:03:51.000Z,66.51
2022-11-24T09:06:55.223Z,66.95
2022-11-24T09:09:58.829Z,67.11
2022-11-24T09:13:02.601Z,67.20
2022-11-24T09:16:17.889Z,66.35
2022-11-24T09:19:21.740Z,67.59
2022-11-24T09:22:24.666Z,67.66
2022-11-24T09:25:28.226Z,68.17
2022-11-24T09:28:31.187Z,68.58
2022-11-24T09:31:36.561Z,68.82
2022-11-24T09:34:40.189Z,68.25
2022-11-24T09:37:45.826Z,69.13
2022-11-24T09:40:50.446Z,69.17
2022-11-24T09:44:04.566Z,68.90
2022-11-24T09:47:23.241Z,69.32
2022-11-24T09:50:29.255Z,69.11
2022-11-24T09:53:57.142Z,67.57
2022-11-24T09:57:02.141Z,68.71
2022-11-24T10:00:13.894Z,68.77
2022-11-24T10:03:24.172Z,67.50
2022-11-24T10:06:35.668Z,68.40
2022-11-24T10:09:57.064Z,67.62
2022-11-24T10:13:25.172Z,68.60
2022-11-24T10:16:51.379Z,68.95
2022-11-24T10:20:04.679Z,69.82
2022-11-24T10:23:25.719Z,68.08
2022-11-24T10:26:38.510Z,67.43
2022-11-24T10:29:43.981Z,69.03
2022-11-24T10:32:50.748Z,68.34
2022-11-24T10:35:59.298Z,67.62
2022-11-24T10:39:13.473Z,68.95
2022-11-24T10:42:26.755Z,68.76
2022-11-24T10:45:33.725Z,68.91
2022-11-24T10:48:47.861Z,68.65
2022-11-24T10:52:12.583Z,68.18
2022-11-24T10:55:16.747Z,67.78
2022-11-24T10:58:29.606Z,67.95
2022-11-24T11:01:36.651Z,68.57
2022-11-24T11:04:39.613Z,68.72
2022-11-24T11:07:42.817Z,68.68
2022-11-24T11:10:49.107Z,68.96
2022-11-24T11:14:04.936Z,69.30
2022-11-24T11:17:37.101Z,69.25
2022-11-24T11:20:41.070Z,69.03
2022-11-24T11:23:46.578Z,68.94
2022-11-24T11:27:01.790Z,68.79
2022-11-24T11:34:21.819Z,68.98
2022-11-24T11:37:33.162Z,68.48
2022-11-24T11:40:37.676Z,66.67
2022-11-24T11:43:42.250Z,65.93
2022-11-24T11:46:46.838Z,66.08
2022-11-24T11:49:56.564Z,66.27
2022-11-24T11:53:34.643Z,66.85
2022-11-24T11:56:45.734Z,67.09
2022-11-24T12:00:05.334Z,66.47
2022-11-24T12:03:48.759Z,66.97
2022-11-24T12:07:11.236Z,67.04
2022-11-24T12:10:36.231Z,66.69
2022-11-24T12:14:03.636Z,66.25
2022-11-24T12:17:21.070Z,66.28
2022-11-24T12:20:56.374Z,66.20
2022-11-24T12:24:12.300Z,65.98
2022-11-24T12:27:32.028Z,65.75
2022-11-24T12:31:08.090Z,65.59
2022-11-24T12:34:39.384Z,64.92
2022-11-24T12:38:18.434Z,64.38
2022-11-24T12:41:42.537Z,64.08
2022-11-24T12:44:55.852Z,64.07
2022-11-24T12:48:05.840Z,63.67
2022-11-24T12:51:39.056Z,63.55
2022-11-24T12:54:48.237Z,63.41
2022-11-24T12:58:25.305Z,63.29
2022-11-24T13:01:48.330Z,63.07
2022-11-24T13:05:13.614Z,63.18
2022-11-24T13:08:17.661Z,63.33
2022-11-24T13:11:23.982Z,63.03
2022-11-24T13:14:37.958Z,62.97
2022-11-24T13:18:02.558Z,62.94
2022-11-24T13:21:04.520Z,62.92
2022-11-24T13:24:21.215Z,63.07
2022-11-24T13:27:43.302Z,63.23
2022-11-24T13:30:46.937Z,64.45
2022-11-24T13:33:51.012Z,63.30
2022-11-24T13:36:54.591Z,63.22
2022-11-24T13:39:58.933Z,63.29
2022-11-24T13:43:03.269Z,63.38
2022-11-24T13:46:11.233Z,63.27
2022-11-24T13:49:21.657Z,63.30
2022-11-24T13:52:40.436Z,63.13
2022-11-24T13:56:04.137Z,63.47
2022-11-24T13:59:25.179Z,63.44
2022-11-24T14:02:30.909Z,63.84
2022-11-24T14:05:39.240Z,63.78
2022-11-24T14:08:42.236Z,64.13
2022-11-24T14:12:00.031Z,64.01
2022-11-24T14:15:23.511Z,63.97
2022-11-24T14:18:29.751Z,64.22
2022-11-24T14:21:43.474Z,64.57
2022-11-24T14:25:02.303Z,64.31
2022-11-24T14:28:22.217Z,64.08
2022-11-24T14:31:26.994Z,63.99
2022-11-24T14:34:32.500Z,63.51
2022-11-24T14:37:36.734Z,63.56
2022-11-24T14:41:14.394Z,63.58
2022-11-24T14:44:27.500Z,64.03
2022-11-24T14:47:39.806Z,64.32
2022-11-24T14:50:43.754Z,64.21
2022-11-24T14:53:51.434Z,64.04
2022-11-24T14:57:04.724Z,63.96
2022-11-24T15:00:22.498Z,63.81
2022-11-24T15:03:25.374Z,63.69
2022-11-24T15:06:28.873Z,63.54
2022-11-24T15:09:45.909Z,63.60
2022-11-24T15:12:59.180Z,63.24
2022-11-24T15:16:05.786Z,63.10
2022-11-24T15:19:16.640Z,63.48
2022-11-24T15:22:41.667Z,63.40
2022-11-24T15:25:44.827Z,63.18
2022-11-24T15:28:48.826Z,63.37
2022-11-24T15:31:53.056Z,63.21
2022-11-24T15:34:57.189Z,63.47
2022-11-24T15:38:00.116Z,63.24
2022-11-24T15:41:17.973Z,63.06
2022-11-24T15:44:21.855Z,63.36
2022-11-24T15:47:25.056Z,63.41
2022-11-24T15:50:28.643Z,63.42
2022-11-24T15:53:39.865Z,63.31
2022-11-24T15:56:43.052Z,63.03
2022-11-24T15:59:49.389Z,63.34
2022-11-24T16:02:53.692Z,63.36
2022-11-24T16:05:59.375Z,63.35
2022-11-24T16:09:03.302Z,63.49
2022-11-24T16:12:11.158Z,63.30
2022-11-24T16:15:18.518Z,63.40
2022-11-24T16:18:22.586Z,63.19
2022-11-24T16:21:25.858Z,62.99
2022-11-24T16:24:29.932Z,62.93
2022-11-24T16:27:33.428Z,62.71
2022-11-24T16:30:36.863Z,62.48
2022-11-24T16:33:41.585Z,62.25
2022-11-24T16:36:45.011Z,62.09
2022-11-24T16:39:50.322Z,62.18
2022-11-24T16:42:54.241Z,62.13
2022-11-24T16:46:22.105Z,62.22
2022-11-24T16:49:25.836Z,62.26
2022-11-24T16:52:28.720Z,62.36
2022-11-24T16:55:32.703Z,62.61
2022-11-24T16:58:39.361Z,62.61
2022-11-24T17:01:42.476Z,62.68
2022-11-24T17:04:46.461Z,62.75
2022-11-24T17:07:49.759Z,62.84
2022-11-24T17:10:53.571Z,62.74
2022-11-24T17:13:58.805Z,62.71
2022-11-24T17:17:02.933Z,62.67
2022-11-24T17:20:07.739Z,61.90
2022-11-24T17:23:11.337Z,61.75
2022-11-24T17:26:16.961Z,61.51
2022-11-24T17:29:20.570Z,61.41
2022-11-24T17:32:23.472Z,61.39
2022-11-24T17:35:26.881Z,61.23
2022-11-24T17:38:31.487Z,61.10
2022-11-24T17:41:35.598Z,61.08
2022-11-24T17:44:38.474Z,61.33
2022-11-24T17:47:42.470Z,61.43
2022-11-24T17:50:45.367Z,61.51
2022-11-24T17:53:51.461Z,61.61
2022-11-24T17:56:54.551Z,62.05
2022-11-24T17:59:58.520Z,62.12
2022-11-24T18:03:02.227Z,62.66
2022-11-24T18:06:10.597Z,62.78
2022-11-24T18:09:14.264Z,63.17
2022-11-24T18:12:17.374Z,63.47
2022-11-24T18:15:21.581Z,63.72
2022-11-24T18:18:24.654Z,63.81
2022-11-24T18:21:27.669Z,63.79
2022-11-24T18:24:31.265Z,63.91
2022-11-24T18:27:35.197Z,64.28
2022-11-24T18:30:38.950Z,64.48
2022-11-24T18:33:43.958Z,64.05
2022-11-24T18:36:51.885Z,63.97
2022-11-24T18:39:55.484Z,63.89
2022-11-24T18:42:59.754Z,64.00
2022-11-24T18:46:08.747Z,64.20
2022-11-24T18:49:13.038Z,64.51
2022-11-24T18:52:17.027Z,64.91
2022-11-24T18:55:19.975Z,65.00
2022-11-24T18:58:24.130Z,65.17
2022-11-24T19:01:29.686Z,65.14
2022-11-24T19:04:33.785Z,65.45
2022-11-24T19:07:37.111Z,65.16
2022-11-24T19:10:41.105Z,64.96
2022-11-24T19:13:44.702Z,64.52
2022-11-24T19:16:49.086Z,64.28
2022-11-24T19:19:52.995Z,64.08
2022-11-24T19:22:56.913Z,64.20
2022-11-24T19:26:04.243Z,64.10
2022-11-24T19:29:08.319Z,64.23
2022-11-24T19:32:12.118Z,63.85
2022-11-24T19:35:16.097Z,63.76
2022-11-24T19:38:19.793Z,63.81
2022-11-24T19:41:29.286Z,63.65
2022-11-24T19:44:32.594Z,63.38
2022-11-24T19:47:36.682Z,63.20
2022-11-24T19:50:39.970Z,63.24
2022-11-24T19:53:44.283Z,63.10
2022-11-24T19:56:47.866Z,63.04
2022-11-24T19:59:52.145Z,63.00
2022-11-24T20:02:55.810Z,62.93
2022-11-24T20:05:58.818Z,62.94
2022-11-24T20:09:02.714Z,62.69
2022-11-24T20:12:06.756Z,62.60
2022-11-24T20:15:10.906Z,62.56
2022-11-24T20:18:14.475Z,62.34
2022-11-24T20:21:20.789Z,62.73
2022-11-24T20:24:25.714Z,62.60
2022-11-24T20:27:29.355Z,62.99
2022-11-24T20:30:33.750Z,62.60
2022-11-24T20:33:38.081Z,62.68
2022-11-24T20:36:44.394Z,62.47
2022-11-24T20:39:48.374Z,63.18
2022-11-24T20:42:51.945Z,62.87
2022-11-24T20:45:55.974Z,61.93
2022-11-24T20:49:00.558Z,61.87
2022-11-24T20:52:04.124Z,61.90
2022-11-24T20:55:08.531Z,61.12
2022-11-24T20:58:12.047Z,60.41
2022-11-24T21:01:39.140Z,59.51
2022-11-24T21:04:42.763Z,60.29
2022-11-24T21:07:46.129Z,59.96
2022-11-24T21:10:57.451Z,58.97
2022-11-24T21:14:01.408Z,58.99
2022-11-24T21:17:04.403Z,58.85
2022-11-24T21:20:10.949Z,57.66
2022-11-24T21:23:14.829Z,58.16
2022-11-24T21:26:19.295Z,57.54
2022-11-24T21:29:23.975Z,57.69
2022-11-24T21:32:29.052Z,57.36
2022-11-24T21:35:35.757Z,57.65
2022-11-24T21:38:40.108Z,57.24
2022-11-24T21:41:44.078Z,56.68
2022-11-24T21:44:48.076Z,56.91
2022-11-24T21:47:53.480Z,56.67
2022-11-24T21:50:59.757Z,56.61
2022-11-24T21:54:03.522Z,56.67
2022-11-24T21:57:06.418Z,56.65
2022-11-24T22:00:09.637Z,56.37
2022-11-24T22:03:12.986Z,56.56
2022-11-24T22:06:19.570Z,56.49
2022-11-24T22:09:22.557Z,56.04
2022-11-24T22:12:26.271Z,56.82
2022-11-24T22:15:29.817Z,56.60
2022-11-24T22:18:38.566Z,56.63
2022-11-24T22:21:41.538Z,55.74
2022-11-24T22:24:44.694Z,55.03
2022-11-24T22:27:47.724Z,54.67
2022-11-24T22:30:50.662Z,55.02
2022-11-24T22:33:55.161Z,54.58
2022-11-24T22:36:58.756Z,54.08
2022-11-24T22:40:01.891Z,54.66
2022-11-24T22:43:04.824Z,53.98
2022-11-24T22:46:13.648Z,54.01
2022-11-24T22:49:17.869Z,54.04
2022-11-24T22:52:21.718Z,54.16
2022-11-24T22:55:25.992Z,53.46
2022-11-24T22:58:30.699Z,53.49
2022-11-24T23:01:35.221Z,53.66
2022-11-24T23:04:39.755Z,52.85
2022-11-24T23:07:43.072Z,52.87
2022-11-24T23:10:46.546Z,52.38
2022-11-24T23:13:54.033Z,52.04
2022-11-24T23:17:01.435Z,51.80
2022-11-24T23:20:05.146Z,51.68
2022-11-24T23:23:09.621Z,51.92
2022-11-24T23:26:22.259Z,52.07
2022-11-24T23:29:26.638Z,52.27
2022-11-24T23:32:30.626Z,51.66
2022-11-24T23:35:34.483Z,51.92
2022-11-24T23:38:39.088Z,51.51
2022-11-24T23:41:42.315Z,51.25
2022-11-24T23:44:46.459Z,51.54
2022-11-24T23:47:49.872Z,51.91
2022-11-24T23:50:53.867Z,52.31
2022-11-24T23:53:58.892Z,51.51
2022-11-24T23:57:03.061Z,51.13
